sensor_id;sensor_type;location;lat;lon;timestamp;P1;durP1;ratioP1;P2;durP2;ratioP2
24745;SDS011;12845;52.042;6.838;2022-07-23T00:00:51;9.77;;;6.30;;
24745;SDS011;12845;52.042;6.838;2022-07-23T00:03:16;10.52;;;6.13;;
24745;SDS011;12845;52.042;6.838;2022-07-23T00:05:42;7.68;;;6.28;;
24745;SDS011;12845;52.042;6.838;2022-07-23T00:08:07;8.05;;;6.97;;
24745;SDS011;12845;52.042;6.838;2022-07-23T00:10:33;9.15;;;6.95;;
24745;SDS011;12845;52.042;6.838;2022-07-23T00:12:59;8.63;;;7.43;;
24745;SDS011;12845;52.042;6.838;2022-07-23T00:15:24;9.82;;;7.03;;
24745;SDS011;12845;52.042;6.838;2022-07-23T00:17:49;10.60;;;6.70;;
24745;SDS011;12845;52.042;6.838;2022-07-23T00:20:15;7.97;;;6.95;;
24745;SDS011;12845;52.042;6.838;2022-07-23T00:22:50;9.40;;;7.00;;
24745;SDS011;12845;52.042;6.838;2022-07-23T00:25:16;12.70;;;7.10;;
24745;SDS011;12845;52.042;6.838;2022-07-23T00:27:42;6.93;;;5.95;;
24745;SDS011;12845;52.042;6.838;2022-07-23T00:30:07;8.63;;;6.07;;
24745;SDS011;12845;52.042;6.838;2022-07-23T00:32:49;9.52;;;6.40;;
24745;SDS011;12845;52.042;6.838;2022-07-23T00:35:20;9.30;;;6.90;;
24745;SDS011;12845;52.042;6.838;2022-07-23T00:37:46;7.90;;;6.25;;
24745;SDS011;12845;52.042;6.838;2022-07-23T00:40:11;9.63;;;6.47;;
24745;SDS011;12845;52.042;6.838;2022-07-23T00:42:37;9.18;;;6.10;;
24745;SDS011;12845;52.042;6.838;2022-07-23T00:45:03;9.68;;;6.80;;
24745;SDS011;12845;52.042;6.838;2022-07-23T00:47:29;7.30;;;6.03;;
24745;SDS011;12845;52.042;6.838;2022-07-23T00:49:54;7.63;;;6.22;;
24745;SDS011;12845;52.042;6.838;2022-07-23T00:52:19;7.68;;;6.45;;
24745;SDS011;12845;52.042;6.838;2022-07-23T00:54:45;7.88;;;6.10;;
24745;SDS011;12845;52.042;6.838;2022-07-23T00:57:10;7.68;;;5.78;;
24745;SDS011;12845;52.042;6.838;2022-07-23T00:59:37;7.15;;;6.18;;
24745;SDS011;12845;52.042;6.838;2022-07-23T01:02:03;8.20;;;6.28;;
24745;SDS011;12845;52.042;6.838;2022-07-23T01:04:28;9.30;;;6.63;;
24745;SDS011;12845;52.042;6.838;2022-07-23T01:06:53;8.90;;;6.75;;
24745;SDS011;12845;52.042;6.838;2022-07-23T01:09:19;8.85;;;7.03;;
24745;SDS011;12845;52.042;6.838;2022-07-23T01:11:44;10.48;;;7.70;;
24745;SDS011;12845;52.042;6.838;2022-07-23T01:14:14;10.15;;;7.88;;
24745;SDS011;12845;52.042;6.838;2022-07-23T01:16:41;8.82;;;7.93;;
24745;SDS011;12845;52.042;6.838;2022-07-23T01:19:07;10.48;;;8.05;;
24745;SDS011;12845;52.042;6.838;2022-07-23T01:21:37;11.48;;;7.63;;
24745;SDS011;12845;52.042;6.838;2022-07-23T01:24:05;8.70;;;6.95;;
24745;SDS011;12845;52.042;6.838;2022-07-23T01:26:30;11.98;;;7.75;;
24745;SDS011;12845;52.042;6.838;2022-07-23T01:28:56;10.25;;;7.95;;
24745;SDS011;12845;52.042;6.838;2022-07-23T01:31:21;9.75;;;7.95;;
24745;SDS011;12845;52.042;6.838;2022-07-23T01:33:47;11.85;;;8.80;;
24745;SDS011;12845;52.042;6.838;2022-07-23T01:36:12;13.07;;;7.97;;
24745;SDS011;12845;52.042;6.838;2022-07-23T01:38:38;12.38;;;8.50;;
24745;SDS011;12845;52.042;6.838;2022-07-23T01:41:03;13.30;;;8.90;;
24745;SDS011;12845;52.042;6.838;2022-07-23T01:43:28;10.90;;;8.65;;
24745;SDS011;12845;52.042;6.838;2022-07-23T01:45:54;14.48;;;9.35;;
24745;SDS011;12845;52.042;6.838;2022-07-23T01:48:20;10.52;;;8.27;;
24745;SDS011;12845;52.042;6.838;2022-07-23T01:50:46;15.25;;;8.68;;
24745;SDS011;12845;52.042;6.838;2022-07-23T01:53:11;11.25;;;8.90;;
24745;SDS011;12845;52.042;6.838;2022-07-23T01:55:37;10.20;;;8.35;;
24745;SDS011;12845;52.042;6.838;2022-07-23T01:58:02;11.63;;;9.20;;
24745;SDS011;12845;52.042;6.838;2022-07-23T02:00:27;9.95;;;7.90;;
24745;SDS011;12845;52.042;6.838;2022-07-23T02:02:53;12.75;;;9.38;;
24745;SDS011;12845;52.042;6.838;2022-07-23T02:05:19;11.40;;;8.80;;
24745;SDS011;12845;52.042;6.838;2022-07-23T02:07:44;10.77;;;8.80;;
24745;SDS011;12845;52.042;6.838;2022-07-23T02:10:09;11.05;;;8.85;;
24745;SDS011;12845;52.042;6.838;2022-07-23T02:12:34;12.15;;;9.02;;
24745;SDS011;12845;52.042;6.838;2022-07-23T02:15:00;10.45;;;9.32;;
24745;SDS011;12845;52.042;6.838;2022-07-23T02:17:26;14.30;;;9.60;;
24745;SDS011;12845;52.042;6.838;2022-07-23T02:19:51;13.50;;;9.95;;
24745;SDS011;12845;52.042;6.838;2022-07-23T02:22:16;11.88;;;9.40;;
24745;SDS011;12845;52.042;6.838;2022-07-23T02:24:42;11.70;;;9.60;;
24745;SDS011;12845;52.042;6.838;2022-07-23T02:27:07;11.15;;;8.90;;
24745;SDS011;12845;52.042;6.838;2022-07-23T02:29:32;12.10;;;9.00;;
24745;SDS011;12845;52.042;6.838;2022-07-23T02:31:58;12.88;;;9.32;;
24745;SDS011;12845;52.042;6.838;2022-07-23T02:34:23;11.73;;;9.63;;
24745;SDS011;12845;52.042;6.838;2022-07-23T02:36:48;13.40;;;9.73;;
24745;SDS011;12845;52.042;6.838;2022-07-23T02:39:14;11.55;;;9.32;;
24745;SDS011;12845;52.042;6.838;2022-07-23T02:41:39;11.55;;;9.80;;
24745;SDS011;12845;52.042;6.838;2022-07-23T02:44:04;13.70;;;10.23;;
24745;SDS011;12845;52.042;6.838;2022-07-23T02:46:30;11.70;;;9.15;;
24745;SDS011;12845;52.042;6.838;2022-07-23T02:48:55;12.88;;;9.80;;
24745;SDS011;12845;52.042;6.838;2022-07-23T02:51:21;15.50;;;10.18;;
24745;SDS011;12845;52.042;6.838;2022-07-23T02:53:46;12.65;;;9.80;;
24745;SDS011;12845;52.042;6.838;2022-07-23T02:56:11;11.85;;;10.15;;
24745;SDS011;12845;52.042;6.838;2022-07-23T02:58:36;12.52;;;10.20;;
24745;SDS011;12845;52.042;6.838;2022-07-23T03:01:02;14.00;;;10.20;;
24745;SDS011;12845;52.042;6.838;2022-07-23T03:03:27;11.85;;;10.10;;
24745;SDS011;12845;52.042;6.838;2022-07-23T03:05:53;13.52;;;10.90;;
24745;SDS011;12845;52.042;6.838;2022-07-23T03:08:18;13.43;;;11.27;;
24745;SDS011;12845;52.042;6.838;2022-07-23T03:10:44;13.70;;;10.35;;
24745;SDS011;12845;52.042;6.838;2022-07-23T03:13:09;12.80;;;10.35;;
24745;SDS011;12845;52.042;6.838;2022-07-23T03:15:34;15.52;;;10.35;;
24745;SDS011;12845;52.042;6.838;2022-07-23T03:18:00;12.93;;;10.70;;
24745;SDS011;12845;52.042;6.838;2022-07-23T03:20:25;13.98;;;10.80;;
24745;SDS011;12845;52.042;6.838;2022-07-23T03:22:50;13.48;;;10.85;;
24745;SDS011;12845;52.042;6.838;2022-07-23T03:25:16;15.93;;;10.85;;
24745;SDS011;12845;52.042;6.838;2022-07-23T03:27:41;15.77;;;12.30;;
24745;SDS011;12845;52.042;6.838;2022-07-23T03:30:07;14.05;;;11.27;;
24745;SDS011;12845;52.042;6.838;2022-07-23T03:32:33;15.07;;;11.43;;
24745;SDS011;12845;52.042;6.838;2022-07-23T03:34:58;16.60;;;11.40;;
24745;SDS011;12845;52.042;6.838;2022-07-23T03:37:24;13.68;;;11.48;;
24745;SDS011;12845;52.042;6.838;2022-07-23T03:39:50;14.02;;;10.50;;
24745;SDS011;12845;52.042;6.838;2022-07-23T03:42:15;14.55;;;10.55;;
24745;SDS011;12845;52.042;6.838;2022-07-23T03:44:40;15.05;;;10.80;;
24745;SDS011;12845;52.042;6.838;2022-07-23T03:47:06;13.30;;;11.27;;
24745;SDS011;12845;52.042;6.838;2022-07-23T03:49:32;14.13;;;10.88;;
24745;SDS011;12845;52.042;6.838;2022-07-23T03:51:58;14.35;;;10.68;;
24745;SDS011;12845;52.042;6.838;2022-07-23T03:54:23;13.35;;;11.27;;
24745;SDS011;12845;52.042;6.838;2022-07-23T03:56:48;12.98;;;11.10;;
24745;SDS011;12845;52.042;6.838;2022-07-23T03:59:14;14.52;;;11.00;;
24745;SDS011;12845;52.042;6.838;2022-07-23T04:01:39;16.20;;;11.60;;
24745;SDS011;12845;52.042;6.838;2022-07-23T04:04:05;15.07;;;12.07;;
24745;SDS011;12845;52.042;6.838;2022-07-23T04:06:30;13.82;;;10.52;;
24745;SDS011;12845;52.042;6.838;2022-07-23T04:08:55;15.13;;;12.63;;
24745;SDS011;12845;52.042;6.838;2022-07-23T04:11:21;15.05;;;12.27;;
24745;SDS011;12845;52.042;6.838;2022-07-23T04:13:46;17.10;;;11.93;;
24745;SDS011;12845;52.042;6.838;2022-07-23T04:16:12;17.63;;;13.57;;
24745;SDS011;12845;52.042;6.838;2022-07-23T04:18:37;19.38;;;13.38;;
24745;SDS011;12845;52.042;6.838;2022-07-23T04:21:03;16.77;;;13.88;;
24745;SDS011;12845;52.042;6.838;2022-07-23T04:23:28;16.40;;;12.20;;
24745;SDS011;12845;52.042;6.838;2022-07-23T04:25:53;15.63;;;13.20;;
24745;SDS011;12845;52.042;6.838;2022-07-23T04:28:18;18.52;;;14.25;;
24745;SDS011;12845;52.042;6.838;2022-07-23T04:30:44;18.05;;;13.07;;
24745;SDS011;12845;52.042;6.838;2022-07-23T04:33:09;15.98;;;12.82;;
24745;SDS011;12845;52.042;6.838;2022-07-23T04:35:35;15.38;;;12.15;;
24745;SDS011;12845;52.042;6.838;2022-07-23T04:38:01;16.80;;;13.45;;
24745;SDS011;12845;52.042;6.838;2022-07-23T04:40:27;17.45;;;13.65;;
24745;SDS011;12845;52.042;6.838;2022-07-23T04:42:52;18.73;;;14.32;;
24745;SDS011;12845;52.042;6.838;2022-07-23T04:45:18;17.00;;;13.65;;
24745;SDS011;12845;52.042;6.838;2022-07-23T04:47:43;19.70;;;14.40;;
24745;SDS011;12845;52.042;6.838;2022-07-23T04:50:09;18.30;;;14.32;;
24745;SDS011;12845;52.042;6.838;2022-07-23T04:52:34;19.52;;;14.75;;
24745;SDS011;12845;52.042;6.838;2022-07-23T04:55:00;18.80;;;15.13;;
24745;SDS011;12845;52.042;6.838;2022-07-23T04:57:25;20.17;;;14.27;;
24745;SDS011;12845;52.042;6.838;2022-07-23T04:59:50;18.30;;;13.63;;
24745;SDS011;12845;52.042;6.838;2022-07-23T05:02:16;18.70;;;15.07;;
24745;SDS011;12845;52.042;6.838;2022-07-23T05:04:41;18.27;;;15.55;;
24745;SDS011;12845;52.042;6.838;2022-07-23T05:07:06;19.20;;;14.60;;
24745;SDS011;12845;52.042;6.838;2022-07-23T05:09:32;19.33;;;14.95;;
24745;SDS011;12845;52.042;6.838;2022-07-23T05:11:57;19.92;;;15.07;;
24745;SDS011;12845;52.042;6.838;2022-07-23T05:14:23;18.08;;;14.95;;
24745;SDS011;12845;52.042;6.838;2022-07-23T05:16:48;17.13;;;13.07;;
24745;SDS011;12845;52.042;6.838;2022-07-23T05:19:13;16.85;;;14.18;;
24745;SDS011;12845;52.042;6.838;2022-07-23T05:21:39;16.50;;;13.65;;
24745;SDS011;12845;52.042;6.838;2022-07-23T05:24:05;18.55;;;14.68;;
24745;SDS011;12845;52.042;6.838;2022-07-23T05:26:30;19.83;;;14.63;;
24745;SDS011;12845;52.042;6.838;2022-07-23T05:28:55;15.88;;;13.27;;
24745;SDS011;12845;52.042;6.838;2022-07-23T05:31:21;16.45;;;13.95;;
24745;SDS011;12845;52.042;6.838;2022-07-23T05:33:46;22.15;;;14.13;;
24745;SDS011;12845;52.042;6.838;2022-07-23T05:36:11;18.77;;;14.27;;
24745;SDS011;12845;52.042;6.838;2022-07-23T05:38:36;16.77;;;13.40;;
24745;SDS011;12845;52.042;6.838;2022-07-23T05:41:02;15.90;;;12.20;;
24745;SDS011;12845;52.042;6.838;2022-07-23T05:43:27;15.48;;;13.02;;
24745;SDS011;12845;52.042;6.838;2022-07-23T05:45:53;14.98;;;11.73;;
24745;SDS011;12845;52.042;6.838;2022-07-23T05:48:19;16.02;;;11.68;;
24745;SDS011;12845;52.042;6.838;2022-07-23T05:50:44;17.02;;;11.75;;
24745;SDS011;12845;52.042;6.838;2022-07-23T05:53:10;13.27;;;11.43;;
24745;SDS011;12845;52.042;6.838;2022-07-23T05:55:35;16.42;;;11.82;;
24745;SDS011;12845;52.042;6.838;2022-07-23T05:58:00;12.57;;;9.52;;
24745;SDS011;12845;52.042;6.838;2022-07-23T06:00:26;12.88;;;10.80;;
24745;SDS011;12845;52.042;6.838;2022-07-23T06:02:52;12.52;;;10.02;;
24745;SDS011;12845;52.042;6.838;2022-07-23T06:05:18;11.90;;;9.70;;
24745;SDS011;12845;52.042;6.838;2022-07-23T06:07:43;13.65;;;10.25;;
24745;SDS011;12845;52.042;6.838;2022-07-23T06:10:09;11.15;;;9.50;;
24745;SDS011;12845;52.042;6.838;2022-07-23T06:12:34;12.07;;;9.38;;
24745;SDS011;12845;52.042;6.838;2022-07-23T06:15:00;11.18;;;9.40;;
24745;SDS011;12845;52.042;6.838;2022-07-23T06:17:26;10.18;;;8.73;;
24745;SDS011;12845;52.042;6.838;2022-07-23T06:19:52;13.23;;;9.32;;
24745;SDS011;12845;52.042;6.838;2022-07-23T06:22:17;9.90;;;7.53;;
24745;SDS011;12845;52.042;6.838;2022-07-23T06:24:43;12.25;;;8.00;;
24745;SDS011;12845;52.042;6.838;2022-07-23T06:27:08;10.73;;;8.07;;
24745;SDS011;12845;52.042;6.838;2022-07-23T06:29:34;9.35;;;7.93;;
24745;SDS011;12845;52.042;6.838;2022-07-23T06:31:59;12.10;;;6.60;;
24745;SDS011;12845;52.042;6.838;2022-07-23T06:34:25;9.52;;;6.65;;
24745;SDS011;12845;52.042;6.838;2022-07-23T06:36:50;10.45;;;5.63;;
24745;SDS011;12845;52.042;6.838;2022-07-23T06:39:15;10.70;;;5.70;;
24745;SDS011;12845;52.042;6.838;2022-07-23T06:41:41;8.10;;;4.90;;
24745;SDS011;12845;52.042;6.838;2022-07-23T06:44:07;7.93;;;5.15;;
24745;SDS011;12845;52.042;6.838;2022-07-23T06:46:32;8.52;;;5.40;;
24745;SDS011;12845;52.042;6.838;2022-07-23T06:48:57;6.55;;;5.32;;
24745;SDS011;12845;52.042;6.838;2022-07-23T06:51:23;7.60;;;5.50;;
24745;SDS011;12845;52.042;6.838;2022-07-23T06:53:48;8.95;;;5.78;;
24745;SDS011;12845;52.042;6.838;2022-07-23T06:56:13;8.57;;;5.13;;
24745;SDS011;12845;52.042;6.838;2022-07-23T06:58:39;11.77;;;5.82;;
24745;SDS011;12845;52.042;6.838;2022-07-23T07:01:04;8.13;;;5.77;;
24745;SDS011;12845;52.042;6.838;2022-07-23T07:03:29;8.60;;;5.45;;
24745;SDS011;12845;52.042;6.838;2022-07-23T07:05:55;8.05;;;6.25;;
24745;SDS011;12845;52.042;6.838;2022-07-23T07:08:22;7.13;;;4.55;;
24745;SDS011;12845;52.042;6.838;2022-07-23T07:10:48;7.43;;;5.47;;
24745;SDS011;12845;52.042;6.838;2022-07-23T07:13:13;7.15;;;4.75;;
24745;SDS011;12845;52.042;6.838;2022-07-23T07:15:38;9.93;;;4.95;;
24745;SDS011;12845;52.042;6.838;2022-07-23T07:18:04;6.40;;;4.53;;
24745;SDS011;12845;52.042;6.838;2022-07-23T07:20:29;5.25;;;3.92;;
24745;SDS011;12845;52.042;6.838;2022-07-23T07:22:54;5.57;;;3.80;;
24745;SDS011;12845;52.042;6.838;2022-07-23T07:25:20;5.65;;;4.10;;
24745;SDS011;12845;52.042;6.838;2022-07-23T07:27:45;6.30;;;4.30;;
24745;SDS011;12845;52.042;6.838;2022-07-23T07:30:11;6.93;;;3.70;;
24745;SDS011;12845;52.042;6.838;2022-07-23T07:32:37;5.82;;;4.10;;
24745;SDS011;12845;52.042;6.838;2022-07-23T07:35:03;5.00;;;2.15;;
24745;SDS011;12845;52.042;6.838;2022-07-23T07:37:29;4.53;;;2.50;;
24745;SDS011;12845;52.042;6.838;2022-07-23T07:39:54;5.20;;;2.92;;
24745;SDS011;12845;52.042;6.838;2022-07-23T07:42:20;7.20;;;2.72;;
24745;SDS011;12845;52.042;6.838;2022-07-23T07:44:45;7.03;;;3.00;;
24745;SDS011;12845;52.042;6.838;2022-07-23T07:47:10;5.72;;;3.30;;
24745;SDS011;12845;52.042;6.838;2022-07-23T07:49:36;4.53;;;2.60;;
24745;SDS011;12845;52.042;6.838;2022-07-23T07:52:01;4.68;;;2.95;;
24745;SDS011;12845;52.042;6.838;2022-07-23T07:54:27;5.55;;;3.20;;
24745;SDS011;12845;52.042;6.838;2022-07-23T07:56:54;4.72;;;3.35;;
24745;SDS011;12845;52.042;6.838;2022-07-23T07:59:19;7.30;;;3.50;;
24745;SDS011;12845;52.042;6.838;2022-07-23T08:01:44;4.50;;;2.90;;
24745;SDS011;12845;52.042;6.838;2022-07-23T08:04:10;4.97;;;3.10;;
24745;SDS011;12845;52.042;6.838;2022-07-23T08:06:35;5.57;;;2.88;;
24745;SDS011;12845;52.042;6.838;2022-07-23T08:09:01;4.65;;;2.97;;
24745;SDS011;12845;52.042;6.838;2022-07-23T08:11:26;5.18;;;2.80;;
24745;SDS011;12845;52.042;6.838;2022-07-23T08:13:52;5.40;;;2.90;;
24745;SDS011;12845;52.042;6.838;2022-07-23T08:16:17;5.00;;;2.80;;
24745;SDS011;12845;52.042;6.838;2022-07-23T08:18:42;3.80;;;3.00;;
24745;SDS011;12845;52.042;6.838;2022-07-23T08:21:07;5.88;;;3.10;;
24745;SDS011;12845;52.042;6.838;2022-07-23T08:23:33;5.80;;;2.88;;
24745;SDS011;12845;52.042;6.838;2022-07-23T08:25:59;4.47;;;2.30;;
24745;SDS011;12845;52.042;6.838;2022-07-23T08:28:25;8.25;;;2.97;;
24745;SDS011;12845;52.042;6.838;2022-07-23T08:30:51;5.38;;;2.47;;
24745;SDS011;12845;52.042;6.838;2022-07-23T08:33:17;5.80;;;2.22;;
24745;SDS011;12845;52.042;6.838;2022-07-23T08:35:44;5.45;;;2.00;;
24745;SDS011;12845;52.042;6.838;2022-07-23T08:38:15;3.60;;;2.13;;
24745;SDS011;12845;52.042;6.838;2022-07-23T08:40:44;4.85;;;2.47;;
24745;SDS011;12845;52.042;6.838;2022-07-23T08:43:12;5.03;;;3.08;;
24745;SDS011;12845;52.042;6.838;2022-07-23T08:45:45;3.50;;;1.70;;
24745;SDS011;12845;52.042;6.838;2022-07-23T08:48:13;3.90;;;2.10;;
24745;SDS011;12845;52.042;6.838;2022-07-23T08:50:44;5.68;;;2.58;;
24745;SDS011;12845;52.042;6.838;2022-07-23T08:53:12;6.03;;;2.17;;
24745;SDS011;12845;52.042;6.838;2022-07-23T08:55:38;3.45;;;2.10;;
24745;SDS011;12845;52.042;6.838;2022-07-23T08:58:04;4.68;;;1.90;;
24745;SDS011;12845;52.042;6.838;2022-07-23T09:00:30;4.00;;;2.50;;
24745;SDS011;12845;52.042;6.838;2022-07-23T09:02:56;4.53;;;2.70;;
24745;SDS011;12845;52.042;6.838;2022-07-23T09:05:21;3.80;;;2.28;;
24745;SDS011;12845;52.042;6.838;2022-07-23T09:08:06;5.57;;;2.60;;
24745;SDS011;12845;52.042;6.838;2022-07-23T09:10:45;3.80;;;2.72;;
24745;SDS011;12845;52.042;6.838;2022-07-23T09:13:28;4.57;;;2.55;;
24745;SDS011;12845;52.042;6.838;2022-07-23T09:16:13;4.82;;;3.10;;
24745;SDS011;12845;52.042;6.838;2022-07-23T09:18:45;6.55;;;2.92;;
24745;SDS011;12845;52.042;6.838;2022-07-23T09:21:24;5.03;;;2.80;;
24745;SDS011;12845;52.042;6.838;2022-07-23T09:26:35;8.30;;;2.58;;
24745;SDS011;12845;52.042;6.838;2022-07-23T09:34:23;5.57;;;2.45;;
24745;SDS011;12845;52.042;6.838;2022-07-23T09:36:51;5.63;;;2.50;;
24745;SDS011;12845;52.042;6.838;2022-07-23T09:39:37;3.63;;;2.40;;
24745;SDS011;12845;52.042;6.838;2022-07-23T09:42:44;5.35;;;2.50;;
24745;SDS011;12845;52.042;6.838;2022-07-23T09:44:52;3.55;;;2.30;;
24745;SDS011;12845;52.042;6.838;2022-07-23T09:47:19;2.90;;;2.05;;
24745;SDS011;12845;52.042;6.838;2022-07-23T09:49:57;5.80;;;3.05;;
24745;SDS011;12845;52.042;6.838;2022-07-23T09:52:29;3.38;;;2.00;;
24745;SDS011;12845;52.042;6.838;2022-07-23T09:54:57;4.30;;;1.80;;
24745;SDS011;12845;52.042;6.838;2022-07-23T09:57:24;3.78;;;1.88;;
24745;SDS011;12845;52.042;6.838;2022-07-23T09:59:51;6.15;;;1.80;;
24745;SDS011;12845;52.042;6.838;2022-07-23T10:02:17;5.07;;;2.25;;
24745;SDS011;12845;52.042;6.838;2022-07-23T10:04:42;4.35;;;2.00;;
24745;SDS011;12845;52.042;6.838;2022-07-23T10:07:08;5.65;;;1.73;;
24745;SDS011;12845;52.042;6.838;2022-07-23T10:09:36;3.47;;;1.88;;
24745;SDS011;12845;52.042;6.838;2022-07-23T10:12:04;3.40;;;1.85;;
24745;SDS011;12845;52.042;6.838;2022-07-23T10:14:49;3.47;;;1.83;;
24745;SDS011;12845;52.042;6.838;2022-07-23T10:17:16;3.97;;;1.88;;
24745;SDS011;12845;52.042;6.838;2022-07-23T10:19:44;3.67;;;1.63;;
24745;SDS011;12845;52.042;6.838;2022-07-23T10:22:11;3.42;;;1.60;;
24745;SDS011;12845;52.042;6.838;2022-07-23T10:41:41;3.33;;;1.60;;
24745;SDS011;12845;52.042;6.838;2022-07-23T10:44:07;3.45;;;1.10;;
24745;SDS011;12845;52.042;6.838;2022-07-23T10:46:34;3.70;;;1.38;;
24745;SDS011;12845;52.042;6.838;2022-07-23T10:57:25;9.48;;;1.85;;
24745;SDS011;12845;52.042;6.838;2022-07-23T11:02:37;2.88;;;1.48;;
24745;SDS011;12845;52.042;6.838;2022-07-23T11:05:04;2.17;;;1.10;;
24745;SDS011;12845;52.042;6.838;2022-07-23T11:07:34;4.97;;;1.50;;
24745;SDS011;12845;52.042;6.838;2022-07-23T11:10:01;3.38;;;1.30;;
24745;SDS011;12845;52.042;6.838;2022-07-23T11:17:28;3.70;;;1.73;;
24745;SDS011;12845;52.042;6.838;2022-07-23T11:27:36;3.00;;;1.60;;
24745;SDS011;12845;52.042;6.838;2022-07-23T11:30:10;3.83;;;1.80;;
24745;SDS011;12845;52.042;6.838;2022-07-23T11:33:15;4.13;;;1.55;;
24745;SDS011;12845;52.042;6.838;2022-07-23T11:35:44;4.93;;;1.90;;
24745;SDS011;12845;52.042;6.838;2022-07-23T11:40:44;3.50;;;1.80;;
24745;SDS011;12845;52.042;6.838;2022-07-23T11:43:11;2.55;;;1.60;;
24745;SDS011;12845;52.042;6.838;2022-07-23T11:45:38;6.45;;;2.15;;
24745;SDS011;12845;52.042;6.838;2022-07-23T11:48:06;4.15;;;2.10;;
24745;SDS011;12845;52.042;6.838;2022-07-23T11:50:34;4.57;;;1.88;;
24745;SDS011;12845;52.042;6.838;2022-07-23T11:53:00;5.28;;;1.98;;
24745;SDS011;12845;52.042;6.838;2022-07-23T11:55:26;4.88;;;1.90;;
24745;SDS011;12845;52.042;6.838;2022-07-23T11:57:53;3.92;;;2.00;;
24745;SDS011;12845;52.042;6.838;2022-07-23T12:00:23;4.97;;;1.80;;
24745;SDS011;12845;52.042;6.838;2022-07-23T12:02:55;3.35;;;1.70;;
24745;SDS011;12845;52.042;6.838;2022-07-23T12:05:29;3.08;;;1.60;;
24745;SDS011;12845;52.042;6.838;2022-07-23T12:07:56;4.03;;;2.08;;
24745;SDS011;12845;52.042;6.838;2022-07-23T12:10:26;4.60;;;2.05;;
24745;SDS011;12845;52.042;6.838;2022-07-23T12:13:00;3.60;;;1.90;;
24745;SDS011;12845;52.042;6.838;2022-07-23T12:15:30;3.70;;;2.20;;
24745;SDS011;12845;52.042;6.838;2022-07-23T12:17:57;4.25;;;1.90;;
24745;SDS011;12845;52.042;6.838;2022-07-23T12:20:25;4.28;;;1.90;;
24745;SDS011;12845;52.042;6.838;2022-07-23T12:22:53;3.40;;;1.70;;
24745;SDS011;12845;52.042;6.838;2022-07-23T12:25:22;5.30;;;1.80;;
24745;SDS011;12845;52.042;6.838;2022-07-23T12:28:01;3.38;;;1.98;;
24745;SDS011;12845;52.042;6.838;2022-07-23T12:30:31;3.53;;;1.85;;
24745;SDS011;12845;52.042;6.838;2022-07-23T12:32:57;2.92;;;2.20;;
24745;SDS011;12845;52.042;6.838;2022-07-23T12:35:23;4.63;;;2.20;;
24745;SDS011;12845;52.042;6.838;2022-07-23T12:38:05;3.75;;;1.70;;
24745;SDS011;12845;52.042;6.838;2022-07-23T12:43:02;4.30;;;2.58;;
24745;SDS011;12845;52.042;6.838;2022-07-23T12:45:45;4.13;;;2.40;;
24745;SDS011;12845;52.042;6.838;2022-07-23T12:48:19;5.15;;;2.45;;
24745;SDS011;12845;52.042;6.838;2022-07-23T12:50:50;5.40;;;2.47;;
24745;SDS011;12845;52.042;6.838;2022-07-23T12:53:18;2.78;;;2.00;;
24745;SDS011;12845;52.042;6.838;2022-07-23T12:55:46;4.63;;;2.28;;
24745;SDS011;12845;52.042;6.838;2022-07-23T12:58:16;4.55;;;1.88;;
24745;SDS011;12845;52.042;6.838;2022-07-23T13:01:03;4.88;;;2.08;;
24745;SDS011;12845;52.042;6.838;2022-07-23T13:06:06;7.53;;;2.50;;
24745;SDS011;12845;52.042;6.838;2022-07-23T13:08:34;4.40;;;2.47;;
24745;SDS011;12845;52.042;6.838;2022-07-23T13:11:01;3.22;;;2.00;;
24745;SDS011;12845;52.042;6.838;2022-07-23T13:13:30;6.18;;;2.70;;
24745;SDS011;12845;52.042;6.838;2022-07-23T13:15:57;4.57;;;2.40;;
24745;SDS011;12845;52.042;6.838;2022-07-23T13:18:23;4.18;;;2.13;;
24745;SDS011;12845;52.042;6.838;2022-07-23T13:20:50;4.07;;;2.03;;
24745;SDS011;12845;52.042;6.838;2022-07-23T13:23:16;3.25;;;2.67;;
24745;SDS011;12845;52.042;6.838;2022-07-23T13:25:42;4.82;;;2.78;;
24745;SDS011;12845;52.042;6.838;2022-07-23T13:28:08;5.25;;;2.60;;
24745;SDS011;12845;52.042;6.838;2022-07-23T13:30:34;4.20;;;2.30;;
24745;SDS011;12845;52.042;6.838;2022-07-23T13:33:00;3.97;;;2.38;;
24745;SDS011;12845;52.042;6.838;2022-07-23T13:35:27;2.80;;;1.95;;
24745;SDS011;12845;52.042;6.838;2022-07-23T13:37:53;5.00;;;2.40;;
24745;SDS011;12845;52.042;6.838;2022-07-23T13:40:18;4.50;;;2.45;;
24745;SDS011;12845;52.042;6.838;2022-07-23T13:42:44;5.15;;;2.47;;
24745;SDS011;12845;52.042;6.838;2022-07-23T13:45:09;4.07;;;2.78;;
24745;SDS011;12845;52.042;6.838;2022-07-23T13:47:34;5.75;;;2.55;;
24745;SDS011;12845;52.042;6.838;2022-07-23T13:50:00;4.00;;;2.40;;
24745;SDS011;12845;52.042;6.838;2022-07-23T13:52:25;4.97;;;2.33;;
24745;SDS011;12845;52.042;6.838;2022-07-23T13:54:51;3.67;;;2.50;;
24745;SDS011;12845;52.042;6.838;2022-07-23T13:57:16;3.88;;;2.35;;
24745;SDS011;12845;52.042;6.838;2022-07-23T13:59:42;4.47;;;2.50;;
24745;SDS011;12845;52.042;6.838;2022-07-23T14:02:07;3.65;;;2.45;;
24745;SDS011;12845;52.042;6.838;2022-07-23T14:04:33;4.20;;;1.85;;
24745;SDS011;12845;52.042;6.838;2022-07-23T14:06:59;5.03;;;2.38;;
24745;SDS011;12845;52.042;6.838;2022-07-23T14:09:24;5.20;;;2.38;;
24745;SDS011;12845;52.042;6.838;2022-07-23T14:11:50;3.65;;;2.33;;
24745;SDS011;12845;52.042;6.838;2022-07-23T14:14:16;4.32;;;2.40;;
24745;SDS011;12845;52.042;6.838;2022-07-23T14:16:41;4.10;;;2.10;;
24745;SDS011;12845;52.042;6.838;2022-07-23T14:19:07;2.97;;;2.25;;
24745;SDS011;12845;52.042;6.838;2022-07-23T14:21:32;4.47;;;2.38;;
24745;SDS011;12845;52.042;6.838;2022-07-23T14:23:58;4.45;;;2.05;;
24745;SDS011;12845;52.042;6.838;2022-07-23T14:26:23;5.18;;;2.38;;
24745;SDS011;12845;52.042;6.838;2022-07-23T14:28:49;3.10;;;2.38;;
24745;SDS011;12845;52.042;6.838;2022-07-23T14:31:14;3.15;;;1.98;;
24745;SDS011;12845;52.042;6.838;2022-07-23T14:33:39;4.50;;;2.63;;
24745;SDS011;12845;52.042;6.838;2022-07-23T14:36:05;5.35;;;2.50;;
24745;SDS011;12845;52.042;6.838;2022-07-23T14:38:30;3.55;;;2.42;;
24745;SDS011;12845;52.042;6.838;2022-07-23T14:40:56;3.50;;;2.35;;
24745;SDS011;12845;52.042;6.838;2022-07-23T14:43:22;4.28;;;2.40;;
24745;SDS011;12845;52.042;6.838;2022-07-23T14:45:47;3.90;;;2.30;;
24745;SDS011;12845;52.042;6.838;2022-07-23T14:48:13;3.10;;;2.10;;
24745;SDS011;12845;52.042;6.838;2022-07-23T14:50:38;3.90;;;2.50;;
24745;SDS011;12845;52.042;6.838;2022-07-23T14:53:04;4.68;;;2.80;;
24745;SDS011;12845;52.042;6.838;2022-07-23T14:55:32;5.07;;;2.45;;
24745;SDS011;12845;52.042;6.838;2022-07-23T14:57:59;4.45;;;2.63;;
24745;SDS011;12845;52.042;6.838;2022-07-23T15:00:24;3.95;;;2.20;;
24745;SDS011;12845;52.042;6.838;2022-07-23T15:03:08;3.30;;;2.00;;
24745;SDS011;12845;52.042;6.838;2022-07-23T15:06:15;3.95;;;2.33;;
24745;SDS011;12845;52.042;6.838;2022-07-23T15:08:58;4.10;;;1.95;;
24745;SDS011;12845;52.042;6.838;2022-07-23T15:15:43;2.88;;;2.15;;
24745;SDS011;12845;52.042;6.838;2022-07-23T15:18:32;5.50;;;3.10;;
24745;SDS011;12845;52.042;6.838;2022-07-23T15:20:58;3.13;;;2.20;;
24745;SDS011;12845;52.042;6.838;2022-07-23T15:23:23;4.50;;;2.67;;
24745;SDS011;12845;52.042;6.838;2022-07-23T15:25:49;3.90;;;2.22;;
24745;SDS011;12845;52.042;6.838;2022-07-23T15:28:14;4.68;;;2.40;;
24745;SDS011;12845;52.042;6.838;2022-07-23T15:30:40;5.55;;;2.28;;
24745;SDS011;12845;52.042;6.838;2022-07-23T15:33:05;4.10;;;2.65;;
24745;SDS011;12845;52.042;6.838;2022-07-23T15:35:32;3.55;;;2.42;;
24745;SDS011;12845;52.042;6.838;2022-07-23T15:37:58;5.35;;;2.60;;
24745;SDS011;12845;52.042;6.838;2022-07-23T15:40:24;4.95;;;2.40;;